sensor_id;sensor_type;location;lat;lon;timestamp;P1;durP1;ratioP1;P2;durP2;ratioP2
80185;SDS011;69904;52.122;5.422;2023-10-08T00:01:50;14.15;;;2.95;;
80185;SDS011;69904;52.122;5.422;2023-10-08T00:04:17;7.78;;;3.08;;
80185;SDS011;69904;52.122;5.422;2023-10-08T00:06:46;14.90;;;2.55;;
80185;SDS011;69904;52.122;5.422;2023-10-08T00:09:13;15.38;;;2.78;;
80185;SDS011;69904;52.122;5.422;2023-10-08T00:11:42;13.07;;;3.50;;
80185;SDS011;69904;52.122;5.422;2023-10-08T00:14:09;11.77;;;2.70;;
80185;SDS011;69904;52.122;5.422;2023-10-08T00:16:37;8.20;;;2.40;;
80185;SDS011;69904;52.122;5.422;2023-10-08T00:19:08;13.50;;;3.20;;
80185;SDS011;69904;52.122;5.422;2023-10-08T00:21:37;8.13;;;2.83;;
80185;SDS011;69904;52.122;5.422;2023-10-08T00:24:04;13.13;;;3.00;;
80185;SDS011;69904;52.122;5.422;2023-10-08T00:26:35;13.30;;;3.22;;
80185;SDS011;69904;52.122;5.422;2023-10-08T00:29:07;8.55;;;2.45;;
80185;SDS011;69904;52.122;5.422;2023-10-08T00:31:48;10.10;;;2.75;;
80185;SDS011;69904;52.122;5.422;2023-10-08T00:34:16;13.00;;;3.28;;
80185;SDS011;69904;52.122;5.422;2023-10-08T00:36:46;11.30;;;3.05;;
80185;SDS011;69904;52.122;5.422;2023-10-08T00:39:14;12.10;;;3.15;;
80185;SDS011;69904;52.122;5.422;2023-10-08T00:41:46;8.95;;;2.97;;
80185;SDS011;69904;52.122;5.422;2023-10-08T00:44:13;17.52;;;3.58;;
80185;SDS011;69904;52.122;5.422;2023-10-08T00:46:42;13.23;;;3.10;;
80185;SDS011;69904;52.122;5.422;2023-10-08T00:49:16;10.70;;;2.88;;
80185;SDS011;69904;52.122;5.422;2023-10-08T00:51:48;9.75;;;2.85;;
80185;SDS011;69904;52.122;5.422;2023-10-08T00:54:27;10.02;;;2.80;;
80185;SDS011;69904;52.122;5.422;2023-10-08T00:57:00;10.52;;;2.97;;
80185;SDS011;69904;52.122;5.422;2023-10-08T00:59:32;11.85;;;3.15;;
80185;SDS011;69904;52.122;5.422;2023-10-08T01:02:11;13.80;;;3.15;;
80185;SDS011;69904;52.122;5.422;2023-10-08T01:04:41;13.00;;;3.03;;
80185;SDS011;69904;52.122;5.422;2023-10-08T01:07:10;9.10;;;2.55;;
80185;SDS011;69904;52.122;5.422;2023-10-08T01:09:39;13.27;;;3.08;;
80185;SDS011;69904;52.122;5.422;2023-10-08T01:12:10;8.02;;;2.85;;
80185;SDS011;69904;52.122;5.422;2023-10-08T01:14:56;14.48;;;3.28;;
80185;SDS011;69904;52.122;5.422;2023-10-08T01:17:31;7.18;;;2.65;;
80185;SDS011;69904;52.122;5.422;2023-10-08T01:19:58;8.32;;;2.85;;
80185;SDS011;69904;52.122;5.422;2023-10-08T01:22:47;10.70;;;3.55;;
80185;SDS011;69904;52.122;5.422;2023-10-08T01:25:14;12.38;;;3.28;;
80185;SDS011;69904;52.122;5.422;2023-10-08T01:27:48;11.73;;;3.17;;
80185;SDS011;69904;52.122;5.422;2023-10-08T01:30:15;10.15;;;3.47;;
80185;SDS011;69904;52.122;5.422;2023-10-08T01:32:44;7.65;;;2.58;;
80185;SDS011;69904;52.122;5.422;2023-10-08T01:35:12;9.77;;;2.97;;
80185;SDS011;69904;52.122;5.422;2023-10-08T01:37:50;13.80;;;4.10;;
80185;SDS011;69904;52.122;5.422;2023-10-08T01:40:17;9.73;;;2.85;;
80185;SDS011;69904;52.122;5.422;2023-10-08T01:42:44;12.63;;;3.63;;
80185;SDS011;69904;52.122;5.422;2023-10-08T01:45:12;12.52;;;2.85;;
80185;SDS011;69904;52.122;5.422;2023-10-08T01:47:44;14.30;;;2.90;;
80185;SDS011;69904;52.122;5.422;2023-10-08T01:50:11;6.63;;;2.88;;
80185;SDS011;69904;52.122;5.422;2023-10-08T01:52:48;9.95;;;2.80;;
80185;SDS011;69904;52.122;5.422;2023-10-08T01:55:14;12.02;;;3.10;;
80185;SDS011;69904;52.122;5.422;2023-10-08T01:57:49;8.57;;;3.05;;
80185;SDS011;69904;52.122;5.422;2023-10-08T02:00:19;12.25;;;3.13;;
80185;SDS011;69904;52.122;5.422;2023-10-08T02:02:46;14.65;;;2.78;;
80185;SDS011;69904;52.122;5.422;2023-10-08T02:05:14;11.60;;;2.88;;
80185;SDS011;69904;52.122;5.422;2023-10-08T02:07:41;13.02;;;3.05;;
80185;SDS011;69904;52.122;5.422;2023-10-08T02:10:10;11.05;;;2.80;;
80185;SDS011;69904;52.122;5.422;2023-10-08T02:12:37;12.63;;;2.78;;
80185;SDS011;69904;52.122;5.422;2023-10-08T02:15:04;13.05;;;3.10;;
80185;SDS011;69904;52.122;5.422;2023-10-08T02:17:33;11.73;;;3.60;;
80185;SDS011;69904;52.122;5.422;2023-10-08T02:20:00;12.80;;;3.10;;
80185;SDS011;69904;52.122;5.422;2023-10-08T02:22:31;9.98;;;3.10;;
80185;SDS011;69904;52.122;5.422;2023-10-08T02:24:59;10.93;;;2.80;;
80185;SDS011;69904;52.122;5.422;2023-10-08T02:27:29;11.63;;;3.28;;
80185;SDS011;69904;52.122;5.422;2023-10-08T02:29:59;10.85;;;3.20;;
80185;SDS011;69904;52.122;5.422;2023-10-08T02:34:52;8.55;;;2.75;;
80185;SDS011;69904;52.122;5.422;2023-10-08T02:39:46;8.45;;;3.67;;
80185;SDS011;69904;52.122;5.422;2023-10-08T02:42:13;10.40;;;2.72;;
80185;SDS011;69904;52.122;5.422;2023-10-08T02:44:40;9.68;;;3.17;;
80185;SDS011;69904;52.122;5.422;2023-10-08T02:47:09;9.25;;;2.97;;
80185;SDS011;69904;52.122;5.422;2023-10-08T02:49:38;12.35;;;3.40;;
80185;SDS011;69904;52.122;5.422;2023-10-08T02:52:07;11.00;;;3.35;;
80185;SDS011;69904;52.122;5.422;2023-10-08T02:54:35;8.55;;;3.00;;
80185;SDS011;69904;52.122;5.422;2023-10-08T02:57:04;15.88;;;3.47;;
80185;SDS011;69904;52.122;5.422;2023-10-08T02:59:35;12.38;;;3.00;;
80185;SDS011;69904;52.122;5.422;2023-10-08T03:02:07;10.70;;;3.60;;
80185;SDS011;69904;52.122;5.422;2023-10-08T03:04:48;9.27;;;3.30;;
80185;SDS011;69904;52.122;5.422;2023-10-08T03:07:19;10.43;;;2.75;;
80185;SDS011;69904;52.122;5.422;2023-10-08T03:09:49;11.25;;;3.33;;
80185;SDS011;69904;52.122;5.422;2023-10-08T03:12:17;13.05;;;3.47;;
80185;SDS011;69904;52.122;5.422;2023-10-08T03:14:44;7.38;;;2.65;;
80185;SDS011;69904;52.122;5.422;2023-10-08T03:17:37;19.35;;;4.72;;
80185;SDS011;69904;52.122;5.422;2023-10-08T03:20:15;12.45;;;3.58;;
80185;SDS011;69904;52.122;5.422;2023-10-08T03:23:00;9.57;;;3.15;;
80185;SDS011;69904;52.122;5.422;2023-10-08T03:25:31;13.32;;;3.65;;
80185;SDS011;69904;52.122;5.422;2023-10-08T03:27:59;12.60;;;3.10;;
80185;SDS011;69904;52.122;5.422;2023-10-08T03:30:26;15.00;;;3.80;;
80185;SDS011;69904;52.122;5.422;2023-10-08T03:32:52;12.55;;;3.72;;
80185;SDS011;69904;52.122;5.422;2023-10-08T03:35:22;11.70;;;3.22;;
80185;SDS011;69904;52.122;5.422;2023-10-08T03:37:54;10.57;;;2.83;;
80185;SDS011;69904;52.122;5.422;2023-10-08T03:40:40;10.38;;;3.28;;
80185;SDS011;69904;52.122;5.422;2023-10-08T03:43:10;10.38;;;3.28;;
80185;SDS011;69904;52.122;5.422;2023-10-08T03:45:45;7.88;;;3.05;;
80185;SDS011;69904;52.122;5.422;2023-10-08T03:48:20;13.02;;;3.50;;
80185;SDS011;69904;52.122;5.422;2023-10-08T03:50:48;11.18;;;3.33;;
80185;SDS011;69904;52.122;5.422;2023-10-08T03:53:23;8.68;;;2.90;;
80185;SDS011;69904;52.122;5.422;2023-10-08T03:55:49;14.57;;;4.00;;
80185;SDS011;69904;52.122;5.422;2023-10-08T03:58:18;11.63;;;3.75;;
80185;SDS011;69904;52.122;5.422;2023-10-08T04:00:58;10.63;;;3.63;;
80185;SDS011;69904;52.122;5.422;2023-10-08T04:03:44;10.00;;;3.50;;
80185;SDS011;69904;52.122;5.422;2023-10-08T04:06:16;10.13;;;3.47;;
80185;SDS011;69904;52.122;5.422;2023-10-08T04:08:48;13.07;;;4.80;;
80185;SDS011;69904;52.122;5.422;2023-10-08T04:11:33;14.77;;;3.90;;
80185;SDS011;69904;52.122;5.422;2023-10-08T04:14:15;12.57;;;4.28;;
80185;SDS011;69904;52.122;5.422;2023-10-08T04:16:45;11.45;;;3.60;;
80185;SDS011;69904;52.122;5.422;2023-10-08T04:19:12;11.25;;;3.42;;
80185;SDS011;69904;52.122;5.422;2023-10-08T04:21:39;13.07;;;3.35;;
80185;SDS011;69904;52.122;5.422;2023-10-08T04:24:10;10.73;;;4.20;;
80185;SDS011;69904;52.122;5.422;2023-10-08T04:26:40;15.95;;;3.78;;
80185;SDS011;69904;52.122;5.422;2023-10-08T04:29:07;9.38;;;2.92;;
80185;SDS011;69904;52.122;5.422;2023-10-08T04:31:34;5.72;;;2.17;;
80185;SDS011;69904;52.122;5.422;2023-10-08T04:34:05;5.93;;;2.63;;
80185;SDS011;69904;52.122;5.422;2023-10-08T04:36:48;8.90;;;2.33;;
80185;SDS011;69904;52.122;5.422;2023-10-08T04:39:22;13.50;;;2.38;;
80185;SDS011;69904;52.122;5.422;2023-10-08T04:41:52;12.75;;;3.05;;
80185;SDS011;69904;52.122;5.422;2023-10-08T04:44:25;10.85;;;2.63;;
80185;SDS011;69904;52.122;5.422;2023-10-08T04:46:52;9.77;;;2.50;;
80185;SDS011;69904;52.122;5.422;2023-10-08T04:49:19;4.40;;;2.00;;
80185;SDS011;69904;52.122;5.422;2023-10-08T04:51:56;5.97;;;2.38;;
80185;SDS011;69904;52.122;5.422;2023-10-08T04:54:24;7.03;;;2.20;;
80185;SDS011;69904;52.122;5.422;2023-10-08T04:56:56;12.52;;;2.53;;
80185;SDS011;69904;52.122;5.422;2023-10-08T04:59:28;9.48;;;2.63;;
80185;SDS011;69904;52.122;5.422;2023-10-08T05:02:04;11.23;;;2.30;;
80185;SDS011;69904;52.122;5.422;2023-10-08T05:04:53;10.98;;;2.67;;
80185;SDS011;69904;52.122;5.422;2023-10-08T05:07:33;14.05;;;2.42;;
80185;SDS011;69904;52.122;5.422;2023-10-08T05:10:12;4.97;;;2.00;;
80185;SDS011;69904;52.122;5.422;2023-10-08T05:12:52;4.97;;;2.15;;
80185;SDS011;69904;52.122;5.422;2023-10-08T05:15:31;15.55;;;3.00;;
80185;SDS011;69904;52.122;5.422;2023-10-08T05:18:32;12.98;;;2.75;;
80185;SDS011;69904;52.122;5.422;2023-10-08T05:21:24;8.75;;;2.28;;
80185;SDS011;69904;52.122;5.422;2023-10-08T05:24:07;12.38;;;2.60;;
80185;SDS011;69904;52.122;5.422;2023-10-08T05:26:39;10.98;;;2.53;;
80185;SDS011;69904;52.122;5.422;2023-10-08T05:29:11;10.93;;;3.03;;
80185;SDS011;69904;52.122;5.422;2023-10-08T05:31:56;13.27;;;3.40;;
80185;SDS011;69904;52.122;5.422;2023-10-08T05:34:45;8.93;;;2.78;;
80185;SDS011;69904;52.122;5.422;2023-10-08T05:37:37;9.57;;;2.50;;
80185;SDS011;69904;52.122;5.422;2023-10-08T05:40:08;10.57;;;2.63;;
80185;SDS011;69904;52.122;5.422;2023-10-08T05:42:58;7.97;;;1.90;;
80185;SDS011;69904;52.122;5.422;2023-10-08T05:45:39;6.20;;;1.45;;
80185;SDS011;69904;52.122;5.422;2023-10-08T05:48:18;4.15;;;1.20;;
80185;SDS011;69904;52.122;5.422;2023-10-08T05:50:54;6.80;;;1.40;;
80185;SDS011;69904;52.122;5.422;2023-10-08T05:53:39;5.32;;;1.55;;
80185;SDS011;69904;52.122;5.422;2023-10-08T05:56:11;5.07;;;0.90;;
80185;SDS011;69904;52.122;5.422;2023-10-08T05:58:55;6.93;;;1.17;;
80185;SDS011;69904;52.122;5.422;2023-10-08T06:01:44;4.63;;;1.42;;
80185;SDS011;69904;52.122;5.422;2023-10-08T06:04:12;5.50;;;1.20;;
80185;SDS011;69904;52.122;5.422;2023-10-08T06:07:07;3.30;;;1.25;;
80185;SDS011;69904;52.122;5.422;2023-10-08T06:09:46;3.25;;;0.80;;
80185;SDS011;69904;52.122;5.422;2023-10-08T06:12:28;4.22;;;0.80;;
80185;SDS011;69904;52.122;5.422;2023-10-08T06:15:05;4.43;;;1.10;;
80185;SDS011;69904;52.122;5.422;2023-10-08T06:17:37;5.00;;;0.90;;
80185;SDS011;69904;52.122;5.422;2023-10-08T06:20:25;1.88;;;0.40;;
80185;SDS011;69904;52.122;5.422;2023-10-08T06:22:53;5.78;;;1.20;;
80185;SDS011;69904;52.122;5.422;2023-10-08T06:25:25;1.55;;;0.60;;
80185;SDS011;69904;52.122;5.422;2023-10-08T06:27:54;2.35;;;0.73;;
80185;SDS011;69904;52.122;5.422;2023-10-08T06:30:22;5.60;;;0.80;;
80185;SDS011;69904;52.122;5.422;2023-10-08T06:32:55;3.33;;;0.88;;
80185;SDS011;69904;52.122;5.422;2023-10-08T06:35:23;5.22;;;0.68;;
80185;SDS011;69904;52.122;5.422;2023-10-08T06:37:52;6.03;;;0.70;;
80185;SDS011;69904;52.122;5.422;2023-10-08T06:40:21;3.75;;;0.95;;
80185;SDS011;69904;52.122;5.422;2023-10-08T06:43:03;1.48;;;0.57;;
80185;SDS011;69904;52.122;5.422;2023-10-08T06:45:41;2.30;;;0.77;;
80185;SDS011;69904;52.122;5.422;2023-10-08T06:48:09;2.97;;;0.77;;
80185;SDS011;69904;52.122;5.422;2023-10-08T06:50:44;3.10;;;0.90;;
80185;SDS011;69904;52.122;5.422;2023-10-08T06:53:11;3.08;;;0.70;;
80185;SDS011;69904;52.122;5.422;2023-10-08T06:55:40;1.45;;;0.55;;
80185;SDS011;69904;52.122;5.422;2023-10-08T06:58:08;2.30;;;0.45;;
80185;SDS011;69904;52.122;5.422;2023-10-08T07:00:35;4.30;;;0.75;;
80185;SDS011;69904;52.122;5.422;2023-10-08T07:03:15;2.10;;;0.75;;
80185;SDS011;69904;52.122;5.422;2023-10-08T07:05:45;2.38;;;0.60;;
80185;SDS011;69904;52.122;5.422;2023-10-08T07:08:27;2.45;;;0.70;;
80185;SDS011;69904;52.122;5.422;2023-10-08T07:10:59;1.40;;;0.70;;
80185;SDS011;69904;52.122;5.422;2023-10-08T07:13:27;3.17;;;0.90;;
80185;SDS011;69904;52.122;5.422;2023-10-08T07:15:55;2.85;;;0.85;;
80185;SDS011;69904;52.122;5.422;2023-10-08T07:18:22;2.13;;;1.10;;
80185;SDS011;69904;52.122;5.422;2023-10-08T07:20:52;2.17;;;0.85;;
80185;SDS011;69904;52.122;5.422;2023-10-08T07:23:20;1.95;;;0.90;;
80185;SDS011;69904;52.122;5.422;2023-10-08T07:25:51;2.30;;;0.90;;
80185;SDS011;69904;52.122;5.422;2023-10-08T07:28:19;2.92;;;1.02;;
80185;SDS011;69904;52.122;5.422;2023-10-08T07:30:46;2.67;;;0.85;;
80185;SDS011;69904;52.122;5.422;2023-10-08T07:33:14;2.33;;;1.05;;
80185;SDS011;69904;52.122;5.422;2023-10-08T07:35:45;3.20;;;1.00;;
80185;SDS011;69904;52.122;5.422;2023-10-08T07:38:20;2.08;;;0.90;;
80185;SDS011;69904;52.122;5.422;2023-10-08T07:40:48;2.53;;;1.00;;
80185;SDS011;69904;52.122;5.422;2023-10-08T07:43:14;4.15;;;1.15;;
80185;SDS011;69904;52.122;5.422;2023-10-08T07:45:41;2.50;;;1.20;;
80185;SDS011;69904;52.122;5.422;2023-10-08T07:48:11;2.42;;;1.00;;
80185;SDS011;69904;52.122;5.422;2023-10-08T07:50:41;3.60;;;1.42;;
80185;SDS011;69904;52.122;5.422;2023-10-08T07:53:08;5.10;;;1.13;;
80185;SDS011;69904;52.122;5.422;2023-10-08T07:55:44;3.90;;;1.70;;
80185;SDS011;69904;52.122;5.422;2023-10-08T07:58:13;2.60;;;1.27;;
80185;SDS011;69904;52.122;5.422;2023-10-08T08:00:41;2.75;;;1.02;;
80185;SDS011;69904;52.122;5.422;2023-10-08T08:03:18;3.75;;;1.33;;
80185;SDS011;69904;52.122;5.422;2023-10-08T08:05:45;2.50;;;1.40;;
80185;SDS011;69904;52.122;5.422;2023-10-08T08:08:12;3.30;;;1.35;;
80185;SDS011;69904;52.122;5.422;2023-10-08T08:10:44;2.03;;;1.20;;
80185;SDS011;69904;52.122;5.422;2023-10-08T08:13:11;3.58;;;1.10;;
80185;SDS011;69904;52.122;5.422;2023-10-08T08:18:12;3.45;;;1.50;;
80185;SDS011;69904;52.122;5.422;2023-10-08T08:20:48;2.90;;;1.40;;
80185;SDS011;69904;52.122;5.422;2023-10-08T08:23:15;2.60;;;1.30;;
80185;SDS011;69904;52.122;5.422;2023-10-08T08:25:42;3.47;;;1.35;;
80185;SDS011;69904;52.122;5.422;2023-10-08T08:28:21;2.80;;;1.33;;
80185;SDS011;69904;52.122;5.422;2023-10-08T08:30:51;3.25;;;1.55;;
80185;SDS011;69904;52.122;5.422;2023-10-08T08:33:21;2.65;;;1.08;;
80185;SDS011;69904;52.122;5.422;2023-10-08T08:35:59;4.03;;;1.63;;
80185;SDS011;69904;52.122;5.422;2023-10-08T08:38:27;3.88;;;1.40;;
80185;SDS011;69904;52.122;5.422;2023-10-08T08:41:02;3.45;;;1.30;;
80185;SDS011;69904;52.122;5.422;2023-10-08T08:43:34;3.72;;;1.38;;
80185;SDS011;69904;52.122;5.422;2023-10-08T08:46:02;4.32;;;1.50;;
80185;SDS011;69904;52.122;5.422;2023-10-08T08:48:31;3.58;;;1.50;;
80185;SDS011;69904;52.122;5.422;2023-10-08T08:51:00;3.60;;;1.17;;
80185;SDS011;69904;52.122;5.422;2023-10-08T08:53:27;3.55;;;1.38;;
80185;SDS011;69904;52.122;5.422;2023-10-08T08:55:55;3.25;;;1.27;;
80185;SDS011;69904;52.122;5.422;2023-10-08T08:58:22;5.55;;;1.30;;
80185;SDS011;69904;52.122;5.422;2023-10-08T09:00:51;2.42;;;1.02;;
80185;SDS011;69904;52.122;5.422;2023-10-08T09:03:19;2.25;;;1.10;;
80185;SDS011;69904;52.122;5.422;2023-10-08T09:05:46;3.67;;;1.38;;
80185;SDS011;69904;52.122;5.422;2023-10-08T09:08:17;2.28;;;1.10;;
80185;SDS011;69904;52.122;5.422;2023-10-08T09:10:45;3.90;;;1.15;;
80185;SDS011;69904;52.122;5.422;2023-10-08T09:15:47;2.88;;;0.98;;
80185;SDS011;69904;52.122;5.422;2023-10-08T09:18:13;2.33;;;1.30;;
80185;SDS011;69904;52.122;5.422;2023-10-08T09:20:40;2.50;;;1.10;;
80185;SDS011;69904;52.122;5.422;2023-10-08T09:23:11;1.75;;;0.93;;
80185;SDS011;69904;52.122;5.422;2023-10-08T09:25:40;4.03;;;1.23;;
80185;SDS011;69904;52.122;5.422;2023-10-08T09:28:07;2.33;;;1.30;;
80185;SDS011;69904;52.122;5.422;2023-10-08T09:30:35;4.32;;;1.52;;
80185;SDS011;69904;52.122;5.422;2023-10-08T09:33:07;2.53;;;1.17;;
80185;SDS011;69904;52.122;5.422;2023-10-08T09:35:34;4.18;;;1.55;;
80185;SDS011;69904;52.122;5.422;2023-10-08T09:38:02;4.18;;;1.65;;
80185;SDS011;69904;52.122;5.422;2023-10-08T09:40:29;2.55;;;1.40;;
80185;SDS011;69904;52.122;5.422;2023-10-08T09:45:22;2.70;;;1.20;;
80185;SDS011;69904;52.122;5.422;2023-10-08T09:47:55;2.78;;;1.40;;
80185;SDS011;69904;52.122;5.422;2023-10-08T09:50:34;2.38;;;1.23;;
80185;SDS011;69904;52.122;5.422;2023-10-08T09:53:08;2.40;;;1.50;;
80185;SDS011;69904;52.122;5.422;2023-10-08T09:55:44;3.15;;;1.10;;
80185;SDS011;69904;52.122;5.422;2023-10-08T09:58:26;3.10;;;1.50;;
80185;SDS011;69904;52.122;5.422;2023-10-08T10:00:55;3.35;;;1.70;;
80185;SDS011;69904;52.122;5.422;2023-10-08T10:03:27;3.88;;;1.35;;
80185;SDS011;69904;52.122;5.422;2023-10-08T10:05:54;4.78;;;1.55;;
80185;SDS011;69904;52.122;5.422;2023-10-08T10:08:27;3.17;;;1.50;;
80185;SDS011;69904;52.122;5.422;2023-10-08T10:10:59;3.55;;;1.52;;
80185;SDS011;69904;52.122;5.422;2023-10-08T10:13:33;3.88;;;1.88;;
80185;SDS011;69904;52.122;5.422;2023-10-08T10:16:01;3.67;;;1.92;;
80185;SDS011;69904;52.122;5.422;2023-10-08T10:18:28;4.45;;;1.55;;
80185;SDS011;69904;52.122;5.422;2023-10-08T10:21:30;7.05;;;2.00;;
80185;SDS011;69904;52.122;5.422;2023-10-08T10:23:53;2.63;;;1.67;;
80185;SDS011;69904;52.122;5.422;2023-10-08T10:26:25;4.18;;;2.15;;
80185;SDS011;69904;52.122;5.422;2023-10-08T10:31:43;4.38;;;1.85;;
80185;SDS011;69904;52.122;5.422;2023-10-08T10:34:16;3.83;;;2.08;;
80185;SDS011;69904;52.122;5.422;2023-10-08T10:36:48;3.95;;;2.47;;
80185;SDS011;69904;52.122;5.422;2023-10-08T10:39:21;5.70;;;2.25;;
80185;SDS011;69904;52.122;5.422;2023-10-08T10:41:58;3.10;;;1.98;;
80185;SDS011;69904;52.122;5.422;2023-10-08T10:44:47;4.22;;;2.20;;
80185;SDS011;69904;52.122;5.422;2023-10-08T10:47:19;5.55;;;2.72;;
80185;SDS011;69904;52.122;5.422;2023-10-08T10:49:49;3.78;;;2.60;;
80185;SDS011;69904;52.122;5.422;2023-10-08T10:52:17;4.30;;;2.60;;
80185;SDS011;69904;52.122;5.422;2023-10-08T10:55:03;5.38;;;2.40;;
80185;SDS011;69904;52.122;5.422;2023-10-08T10:57:43;4.20;;;2.22;;
80185;SDS011;69904;52.122;5.422;2023-10-08T11:00:11;5.43;;;2.40;;
80185;SDS011;69904;52.122;5.422;2023-10-08T11:02:56;4.20;;;2.35;;
80185;SDS011;69904;52.122;5.422;2023-10-08T11:05:26;4.75;;;2.50;;
80185;SDS011;69904;52.122;5.422;2023-10-08T11:07:57;4.85;;;2.20;;
80185;SDS011;69904;52.122;5.422;2023-10-08T11:10:31;4.80;;;2.42;;
80185;SDS011;69904;52.122;5.422;2023-10-08T11:12:58;5.10;;;2.63;;
80185;SDS011;69904;52.122;5.422;2023-10-08T11:15:29;5.75;;;2.97;;
80185;SDS011;69904;52.122;5.422;2023-10-08T11:18:07;4.97;;;2.70;;
80185;SDS011;69904;52.122;5.422;2023-10-08T11:20:35;6.70;;;2.60;;
80185;SDS011;69904;52.122;5.422;2023-10-08T11:23:06;4.82;;;2.45;;
80185;SDS011;69904;52.122;5.422;2023-10-08T11:28:29;5.68;;;3.00;;
80185;SDS011;69904;52.122;5.422;2023-10-08T11:31:06;5.00;;;2.47;;
80185;SDS011;69904;52.122;5.422;2023-10-08T11:33:43;5.75;;;3.08;;
80185;SDS011;69904;52.122;5.422;2023-10-08T11:36:21;4.30;;;2.40;;
80185;SDS011;69904;52.122;5.422;2023-10-08T11:38:54;5.43;;;2.58;;
80185;SDS011;69904;52.122;5.422;2023-10-08T11:41:27;4.03;;;2.20;;
80185;SDS011;69904;52.122;5.422;2023-10-08T11:44:10;4.78;;;1.73;;
80185;SDS011;69904;52.122;5.422;2023-10-08T11:46:40;4.10;;;2.05;;
80185;SDS011;69904;52.122;5.422;2023-10-08T11:49:06;5.60;;;1.90;;
80185;SDS011;69904;52.122;5.422;2023-10-08T11:51:37;3.58;;;1.75;;
80185;SDS011;69904;52.122;5.422;2023-10-08T11:54:06;3.08;;;1.52;;
80185;SDS011;69904;52.122;5.422;2023-10-08T11:56:32;2.90;;;1.60;;
80185;SDS011;69904;52.122;5.422;2023-10-08T11:59:04;6.07;;;1.90;;
80185;SDS011;69904;52.122;5.422;2023-10-08T12:01:35;3.63;;;2.00;;
80185;SDS011;69904;52.122;5.422;2023-10-08T12:04:03;6.07;;;1.85;;
80185;SDS011;69904;52.122;5.422;2023-10-08T12:06:31;4.82;;;1.88;;
80185;SDS011;69904;52.122;5.422;2023-10-08T12:08:59;3.78;;;1.88;;
80185;SDS011;69904;52.122;5.422;2023-10-08T12:11:26;5.13;;;1.27;;
80185;SDS011;69904;52.122;5.422;2023-10-08T12:13:59;4.95;;;1.48;;
80185;SDS011;69904;52.122;5.422;2023-10-08T12:16:26;5.28;;;1.40;;
80185;SDS011;69904;52.122;5.422;2023-10-08T12:18:56;2.80;;;1.33;;
80185;SDS011;69904;52.122;5.422;2023-10-08T12:21:26;2.55;;;1.35;;
80185;SDS011;69904;52.122;5.422;2023-10-08T12:23:59;3.35;;;1.33;;
80185;SDS011;69904;52.122;5.422;2023-10-08T12:26:31;3.60;;;1.75;;
80185;SDS011;69904;52.122;5.422;2023-10-08T12:28:57;3.60;;;1.58;;
80185;SDS011;69904;52.122;5.422;2023-10-08T12:31:24;4.32;;;1.52;;
80185;SDS011;69904;52.122;5.422;2023-10-08T12:36:23;4.50;;;1.55;;
80185;SDS011;69904;52.122;5.422;2023-10-08T12:38:49;2.70;;;1.55;;
80185;SDS011;69904;52.122;5.422;2023-10-08T12:41:24;5.75;;;1.80;;
80185;SDS011;69904;52.122;5.422;2023-10-08T12:43:53;2.53;;;1.23;;
80185;SDS011;69904;52.122;5.422;2023-10-08T12:46:20;4.30;;;1.58;;
80185;SDS011;69904;52.122;5.422;2023-10-08T12:48:51;3.78;;;1.35;;
80185;SDS011;69904;52.122;5.422;2023-10-08T12:51:20;2.35;;;1.10;;
80185;SDS011;69904;52.122;5.422;2023-10-08T12:53:51;3.15;;;1.20;;
80185;SDS011;69904;52.122;5.422;2023-10-08T12:56:26;2.08;;;1.08;;
80185;SDS011;69904;52.122;5.422;2023-10-08T12:59:01;3.53;;;1.20;;
80185;SDS011;69904;52.122;5.422;2023-10-08T13:01:35;4.03;;;1.20;;
80185;SDS011;69904;52.122;5.422;2023-10-08T13:04:03;2.63;;;0.95;;
80185;SDS011;69904;52.122;5.422;2023-10-08T13:06:34;2.88;;;0.77;;
80185;SDS011;69904;52.122;5.422;2023-10-08T13:09:03;3.42;;;0.90;;
80185;SDS011;69904;52.122;5.422;2023-10-08T13:11:39;3.38;;;1.00;;
80185;SDS011;69904;52.122;5.422;2023-10-08T13:14:06;3.40;;;1.30;;
80185;SDS011;69904;52.122;5.422;2023-10-08T13:16:32;2.45;;;0.85;;
80185;SDS011;69904;52.122;5.422;2023-10-08T13:18:59;2.00;;;0.60;;
80185;SDS011;69904;52.122;5.422;2023-10-08T13:23:52;3.70;;;1.50;;
80185;SDS011;69904;52.122;5.422;2023-10-08T13:26:18;3.00;;;0.82;;
80185;SDS011;69904;52.122;5.422;2023-10-08T13:28:49;3.88;;;0.90;;
80185;SDS011;69904;52.122;5.422;2023-10-08T13:31:15;2.55;;;0.93;;
80185;SDS011;69904;52.122;5.422;2023-10-08T13:33:44;2.85;;;1.20;;
80185;SDS011;69904;52.122;5.422;2023-10-08T13:36:15;4.25;;;1.13;;
80185;SDS011;69904;52.122;5.422;2023-10-08T13:38:45;4.30;;;0.95;;
80185;SDS011;69904;52.122;5.422;2023-10-08T13:41:13;1.92;;;0.98;;
80185;SDS011;69904;52.122;5.422;2023-10-08T13:43:44;1.70;;;1.08;;
80185;SDS011;69904;52.122;5.422;2023-10-08T13:46:12;4.10;;;1.40;;
80185;SDS011;69904;52.122;5.422;2023-10-08T13:48:44;2.60;;;1.30;;
80185;SDS011;69904;52.122;5.422;2023-10-08T13:51:17;5.32;;;1.52;;
80185;SDS011;69904;52.122;5.422;2023-10-08T13:53:50;2.40;;;0.80;;
80185;SDS011;69904;52.122;5.422;2023-10-08T13:56:19;4.70;;;1.45;;
80185;SDS011;69904;52.122;5.422;2023-10-08T13:58:51;2.55;;;1.20;;
80185;SDS011;69904;52.122;5.422;2023-10-08T14:01:22;4.43;;;1.35;;
80185;SDS011;69904;52.122;5.422;2023-10-08T14:03:48;2.83;;;1.08;;
80185;SDS011;69904;52.122;5.422;2023-10-08T14:08:43;2.45;;;1.10;;
80185;SDS011;69904;52.122;5.422;2023-10-08T14:11:18;3.10;;;1.25;;
80185;SDS011;69904;52.122;5.422;2023-10-08T14:13:45;2.55;;;1.30;;
80185;SDS011;69904;52.122;5.422;2023-10-08T14:16:13;3.17;;;1.25;;
80185;SDS011;69904;52.122;5.422;2023-10-08T14:18:44;3.20;;;1.27;;
80185;SDS011;69904;52.122;5.422;2023-10-08T14:23:44;6.57;;;1.30;;
80185;SDS011;69904;52.122;5.422;2023-10-08T14:26:13;8.63;;;4.45;;
80185;SDS011;69904;52.122;5.422;2023-10-08T14:28:41;7.55;;;4.45;;
80185;SDS011;69904;52.122;5.422;2023-10-08T14:31:17;4.55;;;2.63;;
80185;SDS011;69904;52.122;5.422;2023-10-08T14:33:44;5.03;;;1.52;;
80185;SDS011;69904;52.122;5.422;2023-10-08T14:36:34;3.33;;;1.20;;
80185;SDS011;69904;52.122;5.422;2023-10-08T14:39:19;2.65;;;1.13;;
80185;SDS011;69904;52.122;5.422;2023-10-08T14:42:04;3.63;;;1.42;;
80185;SDS011;69904;52.122;5.422;2023-10-08T14:44:49;2.65;;;1.23;;
80185;SDS011;69904;52.122;5.422;2023-10-08T14:47:17;2.70;;;1.30;;
80185;SDS011;69904;52.122;5.422;2023-10-08T14:49:44;2.85;;;1.13;;
80185;SDS011;69904;52.122;5.422;2023-10-08T14:52:12;4.35;;;1.50;;
80185;SDS011;69904;52.122;5.422;2023-10-08T14:54:38;3.08;;;1.70;;
80185;SDS011;69904;52.122;5.422;2023-10-08T14:57:05;4.97;;;1.65;;
80185;SDS011;69904;52.122;5.422;2023-10-08T14:59:32;4.03;;;1.63;;
80185;SDS011;69904;52.122;5.422;2023-10-08T15:01:59;4.00;;;1.67;;
80185;SDS011;69904;52.122;5.422;2023-10-08T15:06:54;2.63;;;1.75;;
80185;SDS011;69904;52.122;5.422;2023-10-08T15:09:25;3.60;;;1.40;;
80185;SDS011;69904;52.122;5.422;2023-10-08T15:11:51;5.88;;;1.30;;
80185;SDS011;69904;52.122;5.422;2023-10-08T15:14:19;3.97;;;1.90;;
80185;SDS011;69904;52.122;5.422;2023-10-08T15:16:46;2.92;;;1.55;;
80185;SDS011;69904;52.122;5.422;2023-10-08T15:19:21;5.63;;;1.80;;
80185;SDS011;69904;52.122;5.422;2023-10-08T15:21:48;3.70;;;1.58;;
80185;SDS011;69904;52.122;5.422;2023-10-08T15:24:21;5.32;;;2.08;;
80185;SDS011;69904;52.122;5.422;2023-10-08T15:26:49;3.05;;;1.83;;
80185;SDS011;69904;52.122;5.422;2023-10-08T15:29:16;3.80;;;1.70;;
80185;SDS011;69904;52.122;5.422;2023-10-08T15:31:43;4.78;;;2.00;;
80185;SDS011;69904;52.122;5.422;2023-10-08T15:34:11;3.45;;;1.90;;
80185;SDS011;69904;52.122;5.422;2023-10-08T15:36:57;3.63;;;1.73;;
80185;SDS011;69904;52.122;5.422;2023-10-08T15:39:24;4.25;;;1.77;;
80185;SDS011;69904;52.122;5.422;2023-10-08T15:41:51;3.08;;;2.10;;
80185;SDS011;69904;52.122;5.422;2023-10-08T15:44:18;3.85;;;1.92;;